Terminal Aerodrome Forecast
Issued by NWS Lake Charles, LA

Home | Current Version | Previous Version | Text Only | Print | Product List | Glossary On
Versions: 1 2 3 4 5 6 7 8 9 10 11 12 13 14 15 16 17 18
985
FTUS44 KLCH 140521
TAFLCH
TAF
KLCH 140521Z 1406/1506 13006KT P6SM BKN035
     FM141400 13012KT P6SM BKN025
     FM141800 15014G19KT P6SM BKN025
     FM150100 15007KT 5SM BR VCSH OVC007=

USA.gov is the U.S. government's official web portal to all federal, state and local government web resources and services.